メインページ
METAR-TAF:

METAR-TAF

空港 :

タバ, エジプト

緯度: 29-35-57N, 経度: 034-46-36E, 海抜: 749m

METAR: 見つかりません

時間: 01:25 (23:25 UTC)

予報

当レポートは6時間25分前の17:00(UTC)に作成
予報は15日の 18時(UTC)から 16日の 24時(UTC)まで有効
北/北東の風 12kt
視程10km以上
1,500メートル以下は雲なし、積乱雲なし
15日の 21時(UTC)から 15日の 23時(UTC)まで徐々に
変向風 3kt
16日の 06時(UTC)から 16日の 08時(UTC)まで徐々に
北/北東の風 15kt

TAF: HETB 151700Z 1518/1624 02012KT CAVOK BECMG 1521/1523 VRB03KT BECMG 1606/1608 03015KT

4,000以上の空港の気象観測と天気予報(METAR報とTAF報)

利用可能な観測所は地図上に黄色い丸と赤い丸で示す。

丸の上にカーソルを重ねると観測所名を参照できる。

次にクリックすると気象観測と天気予報を参照できる。

マップの切り替え:黒色「×」印の緑ボタンをクリックして拡大、「-」印の緑ボタンをクリックして縮小、緑色の三角印をクリックして隣りの地図に切り替え


METAR-TAF: